El Centro Naf Airport
KNJK : now visible

Airfield :











YOU CAN JOIN US ON...

 
LOGIN :

Register | Disclaimer

   EN    FR    IT 

 









Legend :    VFR   Marginal VFR   IFR   Intensive IFR   Very Intensive IFR
Visi :
Ceiling :
>= 8 km
>= 3000ft
5 to 8 km
1000 to 3000 ft
1500m to 5 km
500 to 1000 ft
800 to 1500m
200 to 500 ft
< 800m
< 200 ft
Symbols :   Thunderstorms  Fog  Heavy snow  Heavy precipitations  Wind > 20 kt






- Airport Elevation : -42 ft


KNJK - El Centro Naf

CURRENT METAR :
  • 280856Z AUTO 26005KT 10SM CLR 13/M03 A3017 RMK AO2 SLP233 T01331028 56006

EXPIRED METARs :
  • 280756Z AUTO 00000KT 10SM CLR 13/M03 A3018 RMK AO2 SLP234 T01331033 402670050
  • 280656Z 28005KT 10SM BKN220 14/M04 A3018 RMK AO2 SLP235 T01391044

TAF TAF KNJK
Valid from the 28 at 07:00 until the 29 at 07:00 UTC


2807/2907 27006KT 9999 BKN200 QNH3010INS
FM281500 VRB06KT 9999 BKN200 QNH3004INS AUTOMATED SENSOR METWATCH 2807 TIL 2814 T05/2812Z T27/2821Z FS30150



MET'MAP, your aeronautical weather chart ! - Copyright ORBIFLY December 2007 - Disclaimer

ORBIFLY MET'MAP TEAM :

Programming & Development : Alexandra Zaïnal
Concept & original design : Baudouin d'Aumeries
Assistance for programming : Marc-Olivier Méhu
Technical & hardware support : Manuel Goepfert

Contact : metmap@orbifly.com




SOURCES & CREDITS :

   NOAA       Earth
Advisory